createdAt,value
2019-01-24T00:00:37.913Z,68.27
2019-01-24T00:03:49.219Z,76.73
2019-01-24T00:06:55.992Z,75.60
2019-01-24T00:09:57.469Z,74.57
2019-01-24T00:13:10.171Z,69.73
2019-01-24T00:16:09.825Z,71.33
2019-01-24T00:19:00.264Z,75.77
2019-01-24T00:22:00.088Z,70.10
2019-01-24T00:24:51.299Z,73.60
2019-01-24T00:27:44.192Z,71.40
2019-01-24T00:30:34.243Z,68.70
2019-01-24T00:33:26.494Z,72.77
2019-01-24T00:36:17.796Z,64.20
2019-01-24T00:39:27.547Z,63.63
2019-01-24T00:42:17.849Z,62.37
2019-01-24T00:45:33.922Z,66.43
2019-01-24T00:48:30.780Z,61.13
2019-01-24T00:51:21.893Z,69.73
2019-01-24T00:54:12.800Z,65.87
2019-01-24T00:57:21.109Z,63.27
2019-01-24T01:00:19.594Z,59.10
2019-01-24T01:03:26.582Z,63.37
2019-01-24T01:06:17.625Z,68.63
2019-01-24T01:09:11.057Z,62.07
2019-01-24T01:12:44.247Z,60.93
2019-01-24T01:15:33.730Z,66.63
2019-01-24T01:18:28.706Z,62.17
2019-01-24T01:21:19.844Z,68.23
2019-01-24T01:24:13.306Z,60.20
2019-01-24T01:27:09.542Z,66.37
2019-01-24T01:30:18.238Z,61.30
2019-01-24T01:33:12.218Z,61.97
2019-01-24T01:36:09.601Z,61.90
2019-01-24T01:39:17.623Z,72.43
2019-01-24T01:42:16.873Z,65.87
2019-01-24T01:45:08.598Z,67.83
2019-01-24T01:48:12.763Z,63.47
2019-01-24T01:51:04.198Z,67.17
2019-01-24T01:53:54.563Z,66.57
2019-01-24T01:56:45.125Z,62.43
2019-01-24T02:00:05.826Z,62.70
2019-01-24T02:03:09.644Z,66.50
2019-01-24T02:06:30.127Z,62.57
2019-01-24T02:09:44.647Z,70.10
2019-01-24T02:12:38.668Z,63.40
2019-01-24T02:15:37.254Z,67.13
2019-01-24T02:18:30.626Z,61.17
2019-01-24T02:21:22.883Z,64.77
2019-01-24T02:24:14.173Z,61.57
2019-01-24T02:30:31.101Z,60.97
2019-01-24T02:33:21.101Z,60.87
2019-01-24T02:36:12.925Z,64.77
2019-01-24T02:39:04.187Z,62.37
2019-01-24T02:41:59.033Z,67.50
2019-01-24T02:44:49.426Z,63.57
2019-01-24T02:48:10.291Z,58.10
2019-01-24T02:51:03.898Z,62.43
2019-01-24T02:53:54.825Z,64.37
2019-01-24T02:56:45.101Z,65.53
2019-01-24T02:59:34.892Z,65.70
2019-01-24T03:02:26.593Z,66.07
2019-01-24T03:05:17.826Z,64.37
2019-01-24T03:08:10.276Z,70.40
2019-01-24T03:11:06.892Z,67.47
2019-01-24T03:14:02.932Z,69.23
2019-01-24T03:16:54.033Z,70.17
2019-01-24T03:19:58.652Z,63.27
2019-01-24T03:22:52.737Z,67.30
2019-01-24T03:25:43.439Z,70.67
2019-01-24T03:29:03.566Z,64.33
2019-01-24T03:31:55.445Z,69.60
2019-01-24T03:34:47.188Z,71.97
2019-01-24T03:37:56.322Z,77.17
2019-01-24T03:40:46.288Z,73.07
2019-01-24T03:43:36.922Z,76.47
2019-01-24T03:46:28.724Z,75.10
2019-01-24T03:49:23.942Z,76.60
2019-01-24T03:52:14.041Z,73.87
2019-01-24T03:55:04.124Z,76.77
2019-01-24T03:57:54.362Z,72.03
2019-01-24T04:00:47.481Z,76.20
2019-01-24T04:03:38.563Z,80.43
2019-01-24T04:06:28.963Z,75.80
2019-01-24T04:09:21.601Z,76.23
2019-01-24T04:12:12.516Z,78.27
2019-01-24T04:15:03.425Z,76.50
2019-01-24T04:17:54.123Z,79.07
2019-01-24T04:20:42.078Z,78.03
2019-01-24T04:23:54.162Z,77.97
2019-01-24T04:26:44.356Z,84.80
2019-01-24T04:29:36.232Z,76.53
2019-01-24T04:32:26.869Z,78.40
2019-01-24T04:35:20.412Z,82.07
2019-01-24T04:38:13.186Z,87.23
2019-01-24T04:41:05.738Z,75.70
2019-01-24T04:43:58.188Z,77.97
2019-01-24T04:46:49.447Z,78.43
2019-01-24T04:49:40.907Z,80.47
2019-01-24T04:54:49.231Z,78.17
2019-01-24T04:57:36.511Z,79.23
2019-01-24T05:00:28.927Z,76.53
2019-01-24T05:03:16.360Z,78.97
2019-01-24T05:06:04.234Z,75.77
2019-01-24T05:08:51.419Z,72.33
2019-01-24T05:11:39.560Z,74.00
2019-01-24T05:14:27.424Z,78.73
2019-01-24T05:17:14.740Z,78.30
2019-01-24T05:20:02.167Z,76.67
2019-01-24T05:22:49.601Z,82.30
2019-01-24T05:25:36.820Z,80.57
2019-01-24T05:28:24.188Z,71.43
2019-01-24T05:31:11.781Z,80.23
2019-01-24T05:33:59.085Z,77.10
2019-01-24T05:36:46.520Z,73.97
2019-01-24T05:39:34.180Z,83.23
2019-01-24T05:42:21.748Z,74.30
2019-01-24T05:45:09.774Z,72.10
2019-01-24T05:47:57.640Z,73.83
2019-01-24T05:50:45.467Z,83.57
2019-01-24T05:53:32.591Z,78.07
2019-01-24T05:56:19.750Z,71.90
2019-01-24T05:59:07.106Z,82.47
2019-01-24T06:01:55.287Z,81.27
2019-01-24T06:04:42.988Z,75.20
2019-01-24T06:07:30.332Z,75.40
2019-01-24T06:10:17.685Z,78.70
2019-01-24T06:13:05.682Z,78.63
2019-01-24T06:15:53.019Z,77.57
2019-01-24T06:18:40.362Z,80.93
2019-01-24T06:21:28.250Z,81.63
2019-01-24T06:24:15.389Z,76.07
2019-01-24T06:27:03.200Z,75.13
2019-01-24T06:29:51.126Z,82.47
2019-01-24T06:32:39.067Z,76.10
2019-01-24T06:35:26.748Z,80.77
2019-01-24T06:38:14.888Z,84.67
2019-01-24T06:41:02.706Z,80.37
2019-01-24T06:43:50.474Z,87.10
2019-01-24T06:46:37.896Z,71.83
2019-01-24T06:49:25.402Z,78.30
2019-01-24T06:52:12.507Z,90.97
2019-01-24T06:54:59.621Z,81.00
2019-01-24T06:57:47.606Z,82.40
2019-01-24T07:00:35.337Z,78.77
2019-01-24T07:03:23.127Z,78.23
2019-01-24T07:06:14.837Z,78.13
2019-01-24T07:09:02.574Z,81.67
2019-01-24T07:12:07.554Z,77.97
2019-01-24T07:14:55.260Z,74.57
2019-01-24T07:17:43.211Z,82.27
2019-01-24T07:20:30.633Z,85.80
2019-01-24T07:23:17.906Z,81.47
2019-01-24T07:26:05.583Z,93.47
2019-01-24T07:28:53.476Z,77.37
2019-01-24T07:31:41.106Z,81.13
2019-01-24T07:34:28.928Z,88.67
2019-01-24T07:37:17.018Z,72.53
2019-01-24T07:40:05.843Z,84.40
2019-01-24T07:42:54.153Z,84.70
2019-01-24T07:45:42.174Z,97.20
2019-01-24T07:48:30.099Z,73.53
2019-01-24T07:51:18.303Z,76.50
2019-01-24T07:54:06.265Z,68.57
2019-01-24T07:56:53.804Z,76.87
2019-01-24T07:59:41.287Z,78.10
2019-01-24T08:02:29.311Z,81.47
2019-01-24T08:05:17.126Z,77.33
2019-01-24T08:08:04.980Z,78.40
2019-01-24T08:10:53.006Z,81.93
2019-01-24T08:13:40.278Z,80.13
2019-01-24T08:16:28.130Z,77.77
2019-01-24T08:19:15.291Z,80.63
2019-01-24T08:22:02.880Z,81.90
2019-01-24T08:24:50.281Z,86.30
2019-01-24T08:27:38.025Z,73.30
2019-01-24T08:30:30.706Z,68.30
2019-01-24T08:33:18.165Z,85.67
2019-01-24T08:36:06.119Z,77.20
2019-01-24T08:38:53.550Z,78.50
2019-01-24T08:41:40.868Z,72.50
2019-01-24T08:44:27.963Z,76.30
2019-01-24T08:47:15.503Z,77.63
2019-01-24T08:50:03.514Z,79.23
2019-01-24T08:52:51.812Z,71.70
2019-01-24T08:55:41.181Z,79.07
2019-01-24T08:58:28.472Z,74.63
2019-01-24T09:01:15.976Z,68.03
2019-01-24T09:04:03.269Z,72.00
2019-01-24T09:06:50.745Z,68.13
2019-01-24T09:09:38.454Z,71.07
2019-01-24T09:12:30.256Z,65.77
2019-01-24T09:15:15.858Z,80.60
2019-01-24T09:18:03.645Z,65.50
2019-01-24T09:20:51.986Z,71.97
2019-01-24T09:23:39.524Z,68.73
2019-01-24T09:26:27.452Z,73.87
2019-01-24T09:29:14.547Z,78.20
2019-01-24T09:32:02.185Z,79.40
2019-01-24T09:34:49.515Z,72.23
2019-01-24T09:37:36.748Z,67.70
2019-01-24T09:40:24.531Z,79.93
2019-01-24T09:43:12.259Z,66.90
2019-01-24T09:45:59.674Z,68.07
2019-01-24T09:48:47.153Z,70.37
2019-01-24T09:51:34.357Z,65.03
2019-01-24T09:54:21.763Z,64.43
2019-01-24T09:57:09.517Z,66.53
2019-01-24T09:59:57.636Z,67.67
2019-01-24T10:02:45.060Z,73.33
2019-01-24T10:05:32.862Z,70.53
2019-01-24T10:08:21.022Z,67.70
2019-01-24T10:11:08.427Z,66.93
2019-01-24T10:13:56.102Z,65.93
2019-01-24T10:16:43.777Z,59.93
2019-01-24T10:19:31.745Z,68.33
2019-01-24T10:22:19.525Z,72.03
2019-01-24T10:25:09.647Z,76.53
2019-01-24T10:27:57.636Z,63.33
2019-01-24T10:30:45.464Z,70.00
2019-01-24T10:33:32.944Z,66.87
2019-01-24T10:36:20.693Z,64.47
2019-01-24T10:39:09.635Z,69.67
2019-01-24T10:41:57.469Z,82.90
2019-01-24T10:44:45.154Z,74.60
2019-01-24T10:47:32.407Z,60.63
2019-01-24T10:50:20.358Z,62.43
2019-01-24T10:53:08.100Z,57.63
2019-01-24T10:55:55.746Z,61.37
2019-01-24T10:58:43.509Z,62.90
2019-01-24T11:01:31.696Z,61.57
2019-01-24T11:04:19.296Z,62.90
2019-01-24T11:07:07.386Z,60.90
2019-01-24T11:09:55.316Z,57.33
2019-01-24T11:12:42.799Z,56.07
2019-01-24T11:15:30.590Z,61.13
2019-01-24T11:18:18.811Z,59.57
2019-01-24T11:21:06.647Z,63.67
2019-01-24T11:23:54.886Z,55.53
2019-01-24T11:26:42.366Z,64.80
2019-01-24T11:29:30.154Z,58.77
2019-01-24T11:32:17.786Z,60.27
2019-01-24T11:35:08.173Z,61.50
2019-01-24T11:37:55.933Z,51.10
2019-01-24T11:40:43.833Z,58.90
2019-01-24T11:43:31.400Z,55.07
2019-01-24T11:46:18.680Z,48.57
2019-01-24T11:49:06.381Z,53.07
2019-01-24T11:51:53.921Z,49.37
2019-01-24T11:54:41.609Z,52.17
2019-01-24T11:57:29.185Z,55.43
2019-01-24T12:00:26.041Z,66.23
2019-01-24T12:03:13.811Z,59.23
2019-01-24T12:06:01.622Z,59.93
2019-01-24T12:08:49.655Z,63.10
2019-01-24T12:11:37.492Z,68.90
2019-01-24T12:14:24.652Z,55.13
2019-01-24T12:17:12.464Z,52.90
2019-01-24T12:19:59.807Z,50.67
2019-01-24T12:22:47.541Z,56.43
2019-01-24T12:25:35.258Z,56.90
2019-01-24T12:28:22.774Z,56.67
2019-01-24T12:31:10.413Z,55.40
2019-01-24T12:33:57.889Z,55.70
2019-01-24T12:36:46.126Z,63.37
2019-01-24T12:39:33.988Z,58.10
2019-01-24T12:42:21.697Z,56.73
2019-01-24T12:45:13.261Z,58.50
2019-01-24T12:48:01.331Z,50.47
2019-01-24T12:50:48.761Z,55.67
2019-01-24T12:53:37.110Z,57.50
2019-01-24T12:56:24.467Z,55.27
2019-01-24T12:59:12.281Z,56.83
2019-01-24T13:01:59.380Z,53.23
2019-01-24T13:04:47.274Z,55.80
2019-01-24T13:07:34.424Z,54.70
2019-01-24T13:10:23.335Z,68.77
2019-01-24T13:13:10.904Z,74.37
2019-01-24T13:15:58.546Z,53.10
2019-01-24T13:18:46.068Z,59.73
2019-01-24T13:21:33.690Z,61.93
2019-01-24T13:24:21.489Z,55.83
2019-01-24T13:27:09.295Z,125.63
2019-01-24T13:29:56.587Z,90.37
2019-01-24T13:32:43.841Z,54.37
2019-01-24T13:35:31.706Z,51.20
2019-01-24T13:38:19.181Z,54.03
2019-01-24T13:41:06.882Z,60.83
2019-01-24T13:43:54.665Z,65.20
2019-01-24T13:46:42.112Z,53.53
2019-01-24T13:49:29.693Z,57.53
2019-01-24T13:52:17.344Z,52.00
2019-01-24T13:55:05.339Z,59.13
2019-01-24T13:57:52.582Z,60.03
2019-01-24T14:00:41.552Z,59.60
2019-01-24T14:03:42.196Z,57.57
2019-01-24T14:06:27.127Z,56.53
2019-01-24T14:09:14.581Z,64.20
2019-01-24T14:12:02.270Z,60.20
2019-01-24T14:14:49.781Z,63.77
2019-01-24T14:17:37.738Z,58.37
2019-01-24T14:20:25.220Z,64.63
2019-01-24T14:23:13.041Z,59.83
2019-01-24T14:26:00.970Z,60.43
2019-01-24T14:28:48.646Z,66.03
2019-01-24T14:31:36.624Z,63.40
2019-01-24T14:34:24.861Z,64.60
2019-01-24T14:37:12.638Z,67.93
2019-01-24T14:40:00.177Z,67.17
2019-01-24T14:42:48.023Z,58.77
2019-01-24T14:45:36.083Z,56.20
2019-01-24T14:48:23.509Z,61.50
2019-01-24T14:51:10.941Z,58.93
2019-01-24T14:53:58.561Z,57.67
2019-01-24T14:56:46.426Z,70.63
2019-01-24T14:59:33.730Z,63.73
2019-01-24T15:02:21.199Z,64.30
2019-01-24T15:05:09.804Z,66.27
2019-01-24T15:07:59.269Z,71.40
2019-01-24T15:10:47.090Z,64.80
2019-01-24T15:13:34.946Z,61.67
2019-01-24T15:16:22.638Z,62.53
2019-01-24T15:19:10.080Z,63.23
2019-01-24T15:21:57.790Z,67.17
2019-01-24T15:24:45.307Z,73.50
2019-01-24T15:27:32.810Z,64.30
2019-01-24T15:30:21.797Z,69.33
2019-01-24T15:33:09.452Z,68.77
2019-01-24T15:35:57.073Z,70.37
2019-01-24T15:38:44.664Z,70.07
2019-01-24T15:41:32.651Z,70.40
2019-01-24T15:44:20.080Z,72.07
2019-01-24T15:47:07.790Z,67.50
2019-01-24T15:49:55.776Z,73.83
2019-01-24T15:52:43.261Z,68.80
2019-01-24T15:55:30.763Z,75.47
2019-01-24T15:58:18.449Z,69.73
2019-01-24T16:01:06.001Z,73.90
2019-01-24T16:03:54.131Z,82.97
2019-01-24T16:06:41.841Z,76.90
2019-01-24T16:09:29.520Z,71.20
2019-01-24T16:12:17.459Z,76.33
2019-01-24T16:15:07.213Z,79.87
2019-01-24T16:17:54.960Z,84.23
2019-01-24T16:20:42.537Z,74.03
2019-01-24T16:23:30.087Z,68.37
2019-01-24T16:26:17.232Z,76.37
2019-01-24T16:29:05.208Z,80.17
2019-01-24T16:31:52.545Z,80.87
2019-01-24T16:34:39.704Z,75.13
2019-01-24T16:37:26.957Z,75.60
2019-01-24T16:40:15.740Z,73.40
2019-01-24T16:43:03.105Z,74.50
2019-01-24T16:45:50.888Z,72.87
2019-01-24T16:48:38.481Z,68.00
2019-01-24T16:51:25.649Z,71.53
2019-01-24T16:54:12.974Z,79.87
2019-01-24T16:57:00.840Z,71.53
2019-01-24T16:59:48.335Z,76.73
2019-01-24T17:02:36.037Z,78.20
2019-01-24T17:05:23.147Z,73.80
2019-01-24T17:08:16.457Z,78.30
2019-01-24T17:11:01.073Z,76.73
2019-01-24T17:13:48.474Z,72.40
2019-01-24T17:16:36.305Z,71.07
2019-01-24T17:19:23.591Z,61.70
2019-01-24T17:22:11.381Z,74.17
2019-01-24T17:24:59.106Z,74.53
2019-01-24T17:27:46.620Z,75.23
2019-01-24T17:30:35.096Z,72.60
2019-01-24T17:33:29.201Z,80.87
2019-01-24T17:36:18.912Z,75.03
2019-01-24T17:39:13.197Z,67.50
2019-01-24T17:42:01.454Z,73.37
2019-01-24T17:44:49.778Z,75.70
2019-01-24T17:47:41.122Z,69.73
2019-01-24T17:50:34.046Z,75.97
2019-01-24T17:53:22.011Z,89.90
2019-01-24T17:56:14.451Z,73.47
2019-01-24T17:59:11.793Z,69.17
2019-01-24T18:02:00.143Z,70.53
2019-01-24T18:04:50.127Z,62.33
2019-01-24T18:07:39.906Z,64.87
2019-01-24T18:10:28.471Z,75.33
2019-01-24T18:13:20.804Z,68.97
2019-01-24T18:16:11.397Z,62.57
2019-01-24T18:19:00.073Z,65.80
2019-01-24T18:21:52.802Z,64.67
2019-01-24T18:24:42.480Z,68.37
2019-01-24T18:27:31.740Z,57.97
2019-01-24T18:30:28.507Z,64.20
2019-01-24T18:33:19.280Z,52.17
2019-01-24T18:36:13.501Z,56.70
2019-01-24T18:39:06.033Z,65.37
2019-01-24T18:41:54.785Z,57.77
2019-01-24T18:44:44.381Z,60.17
2019-01-24T18:47:38.644Z,56.47
2019-01-24T18:50:27.411Z,56.30
2019-01-24T18:53:15.228Z,61.90
2019-01-24T18:56:02.748Z,61.53
2019-01-24T18:58:50.153Z,56.73
2019-01-24T19:01:37.833Z,58.63
2019-01-24T19:04:25.772Z,57.40
2019-01-24T19:07:13.265Z,58.17
2019-01-24T19:10:01.615Z,61.87
2019-01-24T19:12:49.093Z,60.80
2019-01-24T19:15:37.042Z,60.83
2019-01-24T19:18:24.589Z,64.63
2019-01-24T19:21:12.369Z,57.70
2019-01-24T19:23:59.584Z,66.83
2019-01-24T19:26:47.435Z,71.70
2019-01-24T19:29:34.984Z,63.63
2019-01-24T19:32:22.611Z,75.80
2019-01-24T19:35:10.406Z,85.50
2019-01-24T19:37:57.912Z,83.37
2019-01-24T19:40:45.796Z,74.00
2019-01-24T19:43:33.462Z,76.23
2019-01-24T19:46:21.611Z,82.33
2019-01-24T19:49:09.389Z,84.50
2019-01-24T19:51:58.722Z,77.20
2019-01-24T19:54:47.499Z,77.47
2019-01-24T19:57:34.835Z,82.30
2019-01-24T20:00:24.241Z,79.33
2019-01-24T20:03:11.947Z,83.13
2019-01-24T20:05:59.847Z,86.27
2019-01-24T20:08:47.642Z,83.33
2019-01-24T20:11:35.276Z,87.30
2019-01-24T20:14:22.840Z,100.03
2019-01-24T20:17:10.572Z,87.30
2019-01-24T20:19:58.413Z,93.83
2019-01-24T20:22:45.967Z,105.13
2019-01-24T20:25:33.670Z,117.57
2019-01-24T20:28:21.549Z,110.83
2019-01-24T20:31:09.271Z,99.87
2019-01-24T20:33:56.719Z,100.37
2019-01-24T20:36:44.448Z,104.57
2019-01-24T20:39:32.237Z,107.27
2019-01-24T20:42:19.854Z,108.93
2019-01-24T20:45:07.960Z,97.43
2019-01-24T20:47:55.692Z,98.30
2019-01-24T20:50:42.898Z,95.10
2019-01-24T20:53:30.794Z,99.10
2019-01-24T20:56:18.343Z,103.37
2019-01-24T20:59:05.823Z,94.67
2019-01-24T21:01:53.911Z,103.27
2019-01-24T21:04:41.617Z,101.27
2019-01-24T21:07:29.087Z,89.27
2019-01-24T21:10:19.664Z,94.43
2019-01-24T21:13:07.264Z,88.40
2019-01-24T21:15:54.853Z,90.17
2019-01-24T21:18:42.413Z,87.90
2019-01-24T21:21:30.024Z,91.80
2019-01-24T21:24:17.773Z,89.50
2019-01-24T21:27:05.575Z,88.30
2019-01-24T21:29:53.025Z,94.07
2019-01-24T21:32:40.247Z,99.70
2019-01-24T21:35:27.883Z,95.27
2019-01-24T21:38:15.328Z,103.67
2019-01-24T21:41:02.856Z,96.40
2019-01-24T21:43:50.578Z,104.60
2019-01-24T21:46:38.190Z,90.10
2019-01-24T21:49:25.807Z,96.60
2019-01-24T21:52:12.897Z,108.17
2019-01-24T21:55:01.202Z,98.90
2019-01-24T21:57:49.004Z,91.60
2019-01-24T22:00:36.513Z,100.20
2019-01-24T22:03:24.386Z,91.63
2019-01-24T22:06:12.462Z,87.17
2019-01-24T22:09:00.112Z,88.93
2019-01-24T22:11:47.664Z,88.20
2019-01-24T22:14:35.432Z,90.33
2019-01-24T22:17:23.344Z,93.40
2019-01-24T22:20:11.319Z,87.80
2019-01-24T22:22:59.958Z,77.47
2019-01-24T22:25:47.351Z,83.60
2019-01-24T22:28:35.022Z,83.73
2019-01-24T22:31:22.232Z,80.43
2019-01-24T22:34:09.731Z,88.03
2019-01-24T22:36:56.992Z,94.63
2019-01-24T22:39:44.215Z,86.27
2019-01-24T22:42:31.324Z,90.90
2019-01-24T22:45:21.247Z,84.33
2019-01-24T22:48:09.903Z,89.03
2019-01-24T22:50:58.143Z,84.43
2019-01-24T22:53:46.479Z,98.03
2019-01-24T22:56:35.427Z,79.93
2019-01-24T22:59:23.605Z,87.93
2019-01-24T23:02:29.335Z,90.00
2019-01-24T23:05:17.445Z,84.97
2019-01-24T23:08:05.853Z,86.60
2019-01-24T23:10:54.390Z,82.50
2019-01-24T23:13:52.463Z,85.40
2019-01-24T23:16:56.493Z,92.40
2019-01-24T23:19:47.326Z,79.73
2019-01-24T23:22:41.440Z,72.33
2019-01-24T23:25:37.800Z,80.30
2019-01-24T23:28:25.927Z,76.00
2019-01-24T23:31:15.196Z,79.77
2019-01-24T23:34:03.860Z,77.67
2019-01-24T23:36:52.923Z,66.33
2019-01-24T23:39:43.123Z,68.03
2019-01-24T23:42:33.818Z,76.80
2019-01-24T23:45:28.404Z,75.13
2019-01-24T23:48:18.810Z,75.40
2019-01-24T23:51:29.517Z,79.70
2019-01-24T23:54:09.107Z,79.67
2019-01-24T23:56:59.429Z,79.47
